Time;durP1;ratioP1;P1;durP2;ratioP2;P2;SDS_P1;SDS_P2;PMS_P1;PMS_P2;Temp;Humidity;BMP_temperature;BMP_pressure;BME280_temperature;BME280_humidity;BME280_pressure;Samples;Min_cycle;Max_cycle;Signal;HPM_P1;HPM_P2
2022/03/04 00:01:36;;;;;;;9.90;7.20;;;;;;;3.42;61.59;101970.78;5113852;28;20027;-36
2022/03/04 00:04:01;;;;;;;9.93;7.90;;;;;;;3.36;61.98;101966.88;5113421;28;20544;-36
2022/03/04 00:06:26;;;;;;;10.37;7.90;;;;;;;3.35;61.53;101970.53;5113454;28;20034;-36
2022/03/04 00:08:52;;;;;;;11.77;8.70;;;;;;;3.34;62.13;101971.53;5113643;28;20383;-36
2022/03/04 00:11:18;;;;;;;11.13;8.53;;;;;;;3.20;61.58;101948.03;5113693;28;20054;-36
2022/03/04 00:13:44;;;;;;;;;;;;;;;3.43;61.12;101977.78;5114534;28;20085;-36
2022/03/04 00:16:09;;;;;;;13.52;9.45;;;;;;;3.20;62.17;101982.78;5113736;28;19912;-36
2022/03/04 00:18:34;;;;;;;11.10;8.67;;;;;;;3.24;62.60;101969.97;5113255;28;20309;-37
2022/03/04 00:21:01;;;;;;;12.87;9.73;;;;;;;3.29;62.78;101989.06;5113899;28;20054;-36
2022/03/04 00:23:26;;;;;;;15.32;9.18;;;;;;;3.26;61.98;101990.19;5112781;28;20466;-35
2022/03/04 00:25:52;;;;;;;13.43;9.70;;;;;;;3.17;62.21;101984.94;5113506;28;20059;-36
2022/03/04 00:28:17;;;;;;;15.47;9.33;;;;;;;3.23;63.29;101990.50;5113390;28;20023;-36
2022/03/04 00:30:42;;;;;;;10.70;9.13;;;;;;;3.21;62.57;101991.66;5113464;28;20520;-36
2022/03/04 00:33:08;;;;;;;10.93;8.40;;;;;;;3.14;62.91;101980.75;5112680;28;20069;-36
2022/03/04 00:35:33;;;;;;;11.07;8.90;;;;;;;3.18;63.28;101998.16;5111368;28;20048;-37
2022/03/04 00:37:58;;;;;;;12.03;9.33;;;;;;;3.15;63.51;101993.09;5112921;28;20020;-36
2022/03/04 00:40:24;;;;;;;11.73;8.80;;;;;;;3.07;63.41;101985.00;5113258;28;20032;-35
2022/03/04 00:42:49;;;;;;;13.37;9.13;;;;;;;3.18;63.61;102003.50;5113080;28;20333;-35
2022/03/04 00:45:15;;;;;;;14.33;8.97;;;;;;;3.13;63.79;101996.94;5113111;28;20027;-35
2022/03/04 00:47:40;;;;;;;12.32;9.30;;;;;;;2.98;63.57;101989.47;5112903;28;20028;-36
2022/03/04 00:50:08;;;;;;;15.33;9.70;;;;;;;3.04;63.86;101996.88;5115137;28;20130;-36
2022/03/04 00:52:34;;;;;;;10.82;8.32;;;;;;;3.02;66.13;101982.78;5117129;28;20028;-36
2022/03/04 00:54:59;;;;;;;11.55;8.65;;;;;;;3.04;63.71;101996.03;5117640;28;20118;-36
2022/03/04 00:57:24;;;;;;;13.83;9.17;;;;;;;2.97;63.72;101994.94;5116991;28;20448;-36
2022/03/04 00:59:50;;;;;;;10.60;9.03;;;;;;;2.88;63.69;101986.03;5116579;28;20077;-36
2022/03/04 01:02:15;;;;;;;11.10;8.80;;;;;;;2.87;63.76;101999.53;5116830;28;20213;-36
2022/03/04 01:04:41;;;;;;;13.00;9.77;;;;;;;2.75;63.91;101989.06;5116607;28;20483;-36
2022/03/04 01:07:07;;;;;;;13.07;8.68;;;;;;;2.88;65.76;102003.88;5116819;28;20071;-36
2022/03/04 01:09:32;;;;;;;11.83;9.13;;;;;;;2.76;65.82;101993.41;5115745;28;20136;-36
2022/03/04 01:11:57;;;;;;;14.87;10.33;;;;;;;2.70;64.09;101995.88;5117143;28;20031;-36
2022/03/04 01:14:23;;;;;;;14.00;10.30;;;;;;;2.59;64.16;101978.22;5116960;28;20047;-36
2022/03/04 01:16:48;;;;;;;14.57;10.23;;;;;;;2.62;64.61;102007.28;5116843;28;20027;-36
2022/03/04 01:19:14;;;;;;;12.38;9.25;;;;;;;2.65;66.91;102007.00;5117226;28;20455;-36
2022/03/04 01:21:39;;;;;;;15.13;9.77;;;;;;;2.52;67.33;102001.19;5116255;28;20139;-36
2022/03/04 01:24:06;;;;;;;11.97;9.60;;;;;;;2.61;67.33;101997.59;5116762;28;20375;-36
2022/03/04 01:26:32;;;;;;;12.50;9.10;;;;;;;2.53;67.38;102003.69;5116932;28;20103;-36
2022/03/04 01:28:57;;;;;;;;;;;;;;;2.63;64.92;101998.28;5117351;28;20372;-36
2022/03/04 01:31:23;;;;;;;12.23;7.63;;;;;;;2.48;68.82;101981.94;5117214;28;20003;-36
2022/03/04 01:33:48;;;;;;;12.50;9.80;;;;;;;2.35;67.48;101992.16;5116164;28;20706;-37
2022/03/04 01:36:13;;;;;;;13.97;10.17;;;;;;;2.23;67.12;101985.31;5115007;28;20100;-36
2022/03/04 01:38:39;;;;;;;11.40;9.43;;;;;;;2.24;68.31;101993.16;5116736;27;20458;-37
2022/03/04 01:41:04;;;;;;;13.53;9.30;;;;;;;2.24;69.20;101998.50;5116433;28;20020;-36
2022/03/04 01:43:30;;;;;;;13.13;8.80;;;;;;;2.16;71.26;101985.09;5115803;28;20055;-37
2022/03/04 01:45:55;;;;;;;12.17;9.50;;;;;;;2.05;67.98;101993.28;5116647;28;20475;-37
2022/03/04 01:48:21;;;;;;;11.07;8.03;;;;;;;2.13;71.48;101995.19;5115664;27;20042;-37
2022/03/04 01:50:48;;;;;;;14.40;9.43;;;;;;;1.95;68.23;101993.31;5115683;28;20037;-37
2022/03/04 01:53:14;;;;;;;12.80;9.10;;;;;;;1.98;70.43;101993.00;5115658;28;20023;-37
2022/03/04 01:55:39;;;;;;;11.73;8.73;;;;;;;1.86;68.20;102007.53;5115467;28;20088;-37
2022/03/04 01:58:05;;;;;;;11.07;8.33;;;;;;;1.95;72.98;102008.47;5115818;28;20106;-37
2022/03/04 02:00:30;;;;;;;11.90;9.27;;;;;;;1.98;72.66;102005.53;5115530;28;20023;-37
2022/03/04 02:02:57;;;;;;;11.60;9.50;;;;;;;1.92;69.80;101996.28;5115485;28;20456;-36
2022/03/04 02:05:23;;;;;;;12.68;9.75;;;;;;;1.86;69.86;101988.03;5116173;28;20043;-35
2022/03/04 02:07:48;;;;;;;11.15;8.90;;;;;;;1.81;68.16;101996.47;5115542;28;20019;-35
2022/03/04 02:10:13;;;;;;;11.53;8.97;;;;;;;1.94;68.88;102017.47;5115677;28;20455;-36
2022/03/04 02:12:39;;;;;;;12.33;9.90;;;;;;;1.93;68.55;102015.78;5115595;28;20035;-36
2022/03/04 02:15:06;;;;;;;14.85;9.50;;;;;;;1.84;67.96;102008.66;5115073;28;20051;-36
2022/03/04 02:17:32;;;;;;;11.23;8.90;;;;;;;1.87;68.04;102005.72;5115649;28;20050;-36
2022/03/04 02:19:58;;;;;;;12.80;9.83;;;;;;;1.88;68.81;101988.72;5114111;28;20035;-35
2022/03/04 02:22:24;;;;;;;12.85;9.80;;;;;;;1.87;68.68;101990.53;5115585;28;20032;-35
2022/03/04 02:24:49;;;;;;;10.98;8.88;;;;;;;2.00;71.53;101993.72;5115564;28;20383;-35
2022/03/04 02:27:15;;;;;;;11.07;9.30;;;;;;;1.98;68.90;101998.34;5115284;28;20038;-35
2022/03/04 02:29:40;;;;;;;14.47;10.03;;;;;;;1.95;68.73;101992.47;5115304;28;20472;-36
2022/03/04 02:32:06;;;;;;;11.68;9.35;;;;;;;1.98;69.30;101989.50;5115211;27;20034;-35
2022/03/04 02:34:31;;;;;;;12.27;9.38;;;;;;;1.96;69.39;101995.00;5115678;28;20028;-36
2022/03/04 02:36:57;;;;;;;11.97;9.40;;;;;;;1.90;68.78;101994.72;5114989;28;20141;-36
2022/03/04 02:39:22;;;;;;;13.45;10.05;;;;;;;1.94;68.89;101996.13;5115060;28;20015;-36
2022/03/04 02:41:48;;;;;;;11.50;9.00;;;;;;;1.92;70.02;101990.94;5115125;28;20028;-36
2022/03/04 02:44:14;;;;;;;12.27;10.13;;;;;;;1.84;69.12;101984.66;5114774;28;20023;-36
2022/03/04 02:46:40;;;;;;;;;;;;;;;1.91;67.86;101985.75;5115286;28;20591;-36
2022/03/04 02:49:07;;;;;;;11.57;8.77;;;;;;;1.87;70.19;101979.03;5114533;28;19912;-36
2022/03/04 02:51:32;;;;;;;12.02;9.50;;;;;;;1.71;69.40;101985.84;5115544;28;20035;-36
2022/03/04 02:53:57;;;;;;;11.18;9.43;;;;;;;1.74;68.95;101980.19;5114530;28;20115;-36
2022/03/04 02:56:23;;;;;;;11.50;8.90;;;;;;;1.69;70.66;101971.78;5115146;28;20022;-36
2022/03/04 02:58:49;;;;;;;12.23;9.48;;;;;;;1.70;69.18;101986.78;5112857;28;20032;-37
2022/03/04 03:01:15;;;;;;;12.43;9.70;;;;;;;1.64;69.36;101990.03;5114920;28;20026;-37
2022/03/04 03:03:40;;;;;;;13.25;9.18;;;;;;;1.63;70.10;101987.53;5114728;28;20034;-36
2022/03/04 03:06:05;;;;;;;12.80;9.97;;;;;;;1.64;69.29;101983.88;5115024;28;20332;-36
2022/03/04 03:08:31;;;;;;;13.00;10.13;;;;;;;1.67;70.03;101991.59;5114727;28;20023;-36
2022/03/04 03:10:57;;;;;;;14.15;10.10;;;;;;;1.70;71.04;101992.13;5114752;28;20031;-36
2022/03/04 03:13:22;;;;;;;10.73;8.80;;;;;;;1.68;71.65;101980.78;5113557;28;20455;-35
2022/03/04 03:15:48;;;;;;;13.23;9.27;;;;;;;1.66;70.78;101987.22;5114379;28;20024;-36
2022/03/04 03:18:14;;;;;;;14.05;10.38;;;;;;;1.66;69.88;101980.09;5114580;28;20040;-36
2022/03/04 03:20:39;;;;;;;12.87;10.07;;;;;;;1.59;69.95;101989.63;5114807;28;20031;-36
2022/03/04 03:23:05;;;;;;;13.50;10.60;;;;;;;1.53;69.27;101982.22;5114117;28;20028;-36
2022/03/04 03:25:30;;;;;;;13.85;9.80;;;;;;;1.43;69.32;101966.25;5114085;28;20028;-36
2022/03/04 03:27:55;;;;;;;13.40;10.50;;;;;;;1.32;70.32;101968.22;5113994;28;20077;-36
2022/03/04 03:30:21;;;;;;;13.37;9.73;;;;;;;1.43;71.22;101987.56;5114396;28;20020;-35
2022/03/04 03:32:46;;;;;;;14.30;10.77;;;;;;;1.35;70.90;101974.13;5114001;28;20032;-36
2022/03/04 03:35:12;;;;;;;12.90;10.80;;;;;;;1.31;70.72;101987.88;5113947;28;20608;-36
2022/03/04 03:37:37;;;;;;;13.55;10.18;;;;;;;1.33;71.38;101993.91;5113891;28;20460;-36
2022/03/04 03:40:05;;;;;;;16.17;11.23;;;;;;;1.32;71.17;101989.53;5112873;28;20043;-36
2022/03/04 03:42:30;;;;;;;12.88;10.38;;;;;;;1.18;70.54;101985.50;5113790;28;20047;-36
2022/03/04 03:44:56;;;;;;;15.00;10.57;;;;;;;1.30;70.51;101984.38;5113951;28;20438;-37
2022/03/04 03:47:21;;;;;;;12.90;10.43;;;;;;;1.33;70.58;101989.41;5113501;28;20031;-36
2022/03/04 03:49:46;;;;;;;13.90;11.07;;;;;;;1.27;70.40;101990.84;5113888;28;20028;-36
2022/03/04 03:52:12;;;;;;;14.67;11.07;;;;;;;1.21;70.54;101982.53;5114097;28;20024;-36
2022/03/04 03:54:37;;;;;;;14.97;11.23;;;;;;;1.23;70.83;102002.75;5114029;28;20379;-35
2022/03/04 03:57:04;;;;;;;13.53;10.77;;;;;;;1.24;70.55;101991.09;5113228;28;20119;-35
2022/03/04 03:59:30;;;;;;;14.57;10.77;;;;;;;1.14;70.71;102000.94;5113574;28;20035;-36
2022/03/04 04:01:55;;;;;;;12.43;10.03;;;;;;;1.16;72.07;101993.63;5114318;28;20032;-38
2022/03/04 04:04:20;;;;;;;14.93;11.87;;;;;;;1.11;71.15;101995.88;5113641;28;20249;-36
2022/03/04 04:06:46;;;;;;;14.43;10.95;;;;;;;1.10;71.43;101996.03;5113428;28;20058;-41
2022/03/04 04:09:11;;;;;;;15.60;10.90;;;;;;;1.11;71.70;102001.19;5113962;28;20141;-35
2022/03/04 04:11:38;;;;;;;16.08;10.98;;;;;;;1.15;71.64;102002.59;5113980;28;20024;-35
2022/03/04 04:14:06;;;;;;;14.32;11.50;;;;;;;1.11;71.14;102005.69;5114054;28;20055;-35
2022/03/04 04:16:31;;;;;;;15.43;11.18;;;;;;;1.14;71.50;102011.59;5113576;28;20028;-35
2022/03/04 04:18:57;;;;;;;14.07;10.97;;;;;;;1.14;71.30;102011.59;5113304;28;20031;-35
2022/03/04 04:21:25;;;;;;;15.80;11.88;;;;;;;1.13;71.69;102009.91;5113376;28;20245;-35
2022/03/04 04:23:51;;;;;;;14.77;11.20;;;;;;;1.01;71.44;102001.19;5113035;28;20024;-36
2022/03/04 04:26:17;;;;;;;20.13;13.43;;;;;;;0.96;72.12;102010.59;5113362;28;20115;-36
2022/03/04 04:28:42;;;;;;;14.07;11.17;;;;;;;1.09;71.82;102008.50;5113219;28;20452;-35
2022/03/04 04:31:07;;;;;;;15.67;11.53;;;;;;;1.06;71.66;102006.13;5113425;28;20023;-35
2022/03/04 04:33:33;;;;;;;16.10;11.73;;;;;;;1.09;71.88;102016.50;5113425;28;20031;-35
2022/03/04 04:35:58;;;;;;;16.03;11.00;;;;;;;1.10;72.18;102015.50;5113099;28;20360;-35
2022/03/04 04:38:23;;;;;;;14.60;10.93;;;;;;;1.14;72.33;102016.09;5113554;28;20127;-36
2022/03/04 04:40:50;;;;;;;14.43;11.65;;;;;;;1.19;72.17;102013.84;5113100;28;20071;-35
2022/03/04 04:43:15;;;;;;;14.73;11.43;;;;;;;1.18;71.48;102020.16;5113072;28;20076;-36
2022/03/04 04:45:41;;;;;;;17.13;12.90;;;;;;;1.18;72.17;102018.31;5113420;28;20488;-36
2022/03/04 04:48:06;;;;;;;13.03;10.50;;;;;;;1.20;72.07;102018.19;5113024;28;20032;-36
2022/03/04 04:50:32;;;;;;;15.85;11.00;;;;;;;1.20;73.10;102019.00;5113275;28;20387;-36
2022/03/04 04:52:57;;;;;;;15.50;11.63;;;;;;;1.18;72.48;102022.81;5112832;28;20019;-36
2022/03/04 04:55:22;;;;;;;15.17;11.37;;;;;;;1.04;72.20;102002.75;5112879;28;20020;-36
2022/03/04 04:57:48;;;;;;;17.20;11.67;;;;;;;1.12;72.06;102010.88;5112981;28;20024;-36
2022/03/04 05:00:14;;;;;;;15.47;11.50;;;;;;;1.12;72.20;102016.19;5113279;28;20019;-36
2022/03/04 05:02:39;;;;;;;16.60;11.93;;;;;;;0.97;72.00;101997.13;5112922;28;20027;-36
2022/03/04 05:05:05;;;;;;;17.27;11.83;;;;;;;1.07;71.96;102017.59;5113128;28;20387;-36
2022/03/04 05:07:30;;;;;;;15.88;11.18;;;;;;;1.10;73.51;102018.19;5112862;28;20020;-36
2022/03/04 05:09:56;;;;;;;14.57;11.57;;;;;;;1.10;72.39;102014.69;5113035;28;20035;-36
2022/03/04 05:12:21;;;;;;;14.73;12.07;;;;;;;1.11;72.87;102013.69;5112818;28;20024;-36
2022/03/04 05:14:46;;;;;;;15.90;10.93;;;;;;;1.00;72.09;102002.19;5112017;28;20020;-36
2022/03/04 05:17:12;;;;;;;15.27;11.57;;;;;;;1.04;72.48;102013.41;5113130;28;20097;-36
2022/03/04 05:19:37;;;;;;;14.80;11.37;;;;;;;1.01;73.03;102019.00;5112943;28;20080;-36
2022/03/04 05:22:03;;;;;;;13.47;10.63;;;;;;;1.00;72.53;102022.66;5112689;28;20028;-36
2022/03/04 05:24:28;;;;;;;14.77;12.20;;;;;;;0.90;72.70;102011.16;5113315;28;20051;-36
2022/03/04 05:26:53;;;;;;;16.10;12.03;;;;;;;0.70;73.58;101984.53;5112981;28;20273;-36
2022/03/04 05:29:18;;;;;;;14.73;11.33;;;;;;;0.81;73.06;102017.31;5113724;28;20413;-36
2022/03/04 05:31:44;;;;;;;17.13;12.60;;;;;;;0.83;73.96;102015.34;5112562;28;20430;-36
2022/03/04 05:34:11;;;;;;;18.07;12.07;;;;;;;0.84;75.24;102019.72;5112976;28;20436;-36
2022/03/04 05:36:40;;;;;;;16.02;11.77;;;;;;;0.72;74.07;102018.97;5114663;28;20447;-36
2022/03/04 05:39:06;;;;;;;15.70;12.57;;;;;;;0.72;73.90;102029.63;5115922;28;20028;-36
2022/03/04 05:41:31;;;;;;;16.95;13.02;;;;;;;0.66;73.42;102028.38;5116355;28;20028;-36
2022/03/04 05:43:57;;;;;;;15.60;11.70;;;;;;;0.72;73.86;102033.13;5116024;28;20040;-36
2022/03/04 05:46:22;;;;;;;16.20;12.40;;;;;;;0.67;74.24;102027.38;5116676;28;20070;-36
2022/03/04 05:48:48;;;;;;;16.00;11.77;;;;;;;0.72;75.11;102046.44;5116869;28;20027;-35
2022/03/04 05:51:13;;;;;;;17.53;12.63;;;;;;;0.63;73.84;102033.94;5116049;28;20053;-35
2022/03/04 05:53:39;;;;;;;19.63;11.97;;;;;;;0.79;74.75;102045.91;5116461;28;20032;-35
2022/03/04 05:56:05;;;;;;;17.38;12.82;;;;;;;0.58;73.92;102027.38;5116266;28;20031;-35
2022/03/04 05:58:31;;;;;;;15.30;11.70;;;;;;;0.77;74.85;102054.88;5115621;28;20031;-36
2022/03/04 06:00:56;;;;;;;17.27;12.53;;;;;;;0.79;74.35;102045.91;5116410;27;20027;-36
2022/03/04 06:03:22;;;;;;;17.33;11.88;;;;;;;0.67;74.44;102043.34;5115790;27;20126;-36
2022/03/04 06:05:48;;;;;;;15.32;12.20;;;;;;;0.77;74.08;102062.00;5115759;27;20429;-36
2022/03/04 06:08:13;;;;;;;15.53;12.37;;;;;;;0.72;75.39;102066.91;5115633;28;20063;-36
2022/03/04 06:10:38;;;;;;;18.53;13.50;;;;;;;0.50;74.23;102047.53;5115918;28;20081;-36
2022/03/04 06:13:04;;;;;;;20.73;13.37;;;;;;;0.56;74.32;102069.25;5115640;28;20068;-36
2022/03/04 06:15:29;;;;;;;17.42;12.52;;;;;;;0.58;74.82;102065.47;5115583;28;20111;-37
2022/03/04 06:17:55;;;;;;;16.93;13.40;;;;;;;0.49;75.12;102068.97;5115663;28;20038;-36
2022/03/04 06:20:20;;;;;;;16.30;11.93;;;;;;;0.55;75.94;102055.09;5116014;28;20027;-36
2022/03/04 06:22:46;;;;;;;14.20;11.48;;;;;;;0.63;75.25;102073.03;5115585;28;20055;-36
2022/03/04 06:25:14;;;;;;;14.98;11.52;;;;;;;0.50;75.84;102062.66;5116097;28;20531;-35
2022/03/04 06:27:57;;;;;;;16.13;12.15;;;;;;;0.55;75.23;102065.75;5115238;28;20019;-36
2022/03/04 06:30:24;;;;;;;19.63;14.25;;;;;;;0.53;77.24;102067.69;5115376;28;20019;-36
2022/03/04 06:32:51;;;;;;;16.17;12.25;;;;;;;0.54;75.92;102079.19;5115302;28;20108;-36
2022/03/04 06:35:17;;;;;;;21.15;14.65;;;;;;;0.35;75.72;102056.88;5115207;28;20164;-35
2022/03/04 06:37:43;;;;;;;17.88;13.05;;;;;;;0.44;76.67;102063.19;5115138;28;20114;-35
2022/03/04 06:40:09;;;;;;;19.98;12.63;;;;;;;0.46;76.51;102074.56;5115163;28;20027;-35
2022/03/04 06:42:35;;;;;;;20.50;14.52;;;;;;;0.35;76.34;102079.97;5115564;28;20044;-36
2022/03/04 06:45:00;;;;;;;19.15;14.40;;;;;;;0.44;76.54;102076.47;5115369;28;20475;-36
2022/03/04 06:47:25;;;;;;;18.40;13.30;;;;;;;0.51;76.71;102089.13;5114900;28;20031;-36
2022/03/04 06:49:51;;;;;;;18.50;13.60;;;;;;;0.49;76.54;102068.97;5115108;27;20059;-36
2022/03/04 06:52:17;;;;;;;20.70;14.20;;;;;;;0.51;76.50;102082.97;5115083;28;20127;-36
2022/03/04 06:54:42;;;;;;;20.17;13.70;;;;;;;0.55;76.52;102092.38;5115777;28;20066;-35
2022/03/04 06:57:07;;;;;;;20.13;14.67;;;;;;;0.45;76.80;102091.50;5115225;28;20054;-35
2022/03/04 06:59:33;;;;;;;17.83;13.03;;;;;;;0.54;77.05;102093.38;5114966;28;20524;-35
2022/03/04 07:01:59;;;;;;;23.47;15.73;;;;;;;0.46;77.19;102095.84;5115068;28;20447;-36
2022/03/04 07:04:24;;;;;;;23.45;15.48;;;;;;;0.48;77.35;102086.72;5115078;28;20044;-36
2022/03/04 07:06:50;;;;;;;20.33;14.95;;;;;;;0.56;77.79;102107.38;5114690;28;20548;-36
2022/03/04 07:09:16;;;;;;;18.33;13.77;;;;;;;0.57;77.36;102103.72;5116053;28;20031;-35
2022/03/04 07:11:41;;;;;;;19.90;14.57;;;;;;;0.61;77.60;102107.81;5114932;28;20044;-35
2022/03/04 07:14:07;;;;;;;20.07;14.37;;;;;;;0.64;77.36;102107.53;5115638;28;20737;-35
2022/03/04 07:16:32;;;;;;;18.60;14.13;;;;;;;0.86;76.80;102122.44;5114980;28;20277;-35
2022/03/04 07:18:58;;;;;;;18.33;13.60;;;;;;;0.92;77.15;102116.56;5114493;28;20117;-36
2022/03/04 07:21:23;;;;;;;22.35;14.68;;;;;;;0.88;76.43;102120.50;5115280;28;20064;-36
2022/03/04 07:23:48;;;;;;;19.70;14.73;;;;;;;0.93;76.92;102123.59;5114352;28;20114;-35
2022/03/04 07:26:14;;;;;;;20.20;14.47;;;;;;;1.02;76.30;102125.44;5112967;28;20549;-35
2022/03/04 07:28:39;;;;;;;22.97;13.73;;;;;;;1.15;77.03;102127.00;5114568;28;20023;-35
2022/03/04 07:31:04;;;;;;;18.80;13.90;;;;;;;1.20;76.24;102114.94;5114684;28;20019;-36
2022/03/04 07:33:30;;;;;;;22.50;15.37;;;;;;;1.17;75.70;102114.38;5114716;27;20024;-36
2022/03/04 07:35:55;;;;;;;20.83;15.03;;;;;;;1.24;76.28;102111.03;5114749;28;20062;-35
2022/03/04 07:38:20;;;;;;;20.27;14.83;;;;;;;1.33;75.50;102124.50;5115079;28;20019;-35
2022/03/04 07:40:46;;;;;;;20.33;13.73;;;;;;;1.40;74.77;102114.94;5115089;28;20043;-35
2022/03/04 07:43:11;;;;;;;23.23;14.13;;;;;;;1.56;74.92;102133.88;5114453;28;20563;-35
2022/03/04 07:45:37;;;;;;;20.83;14.97;;;;;;;1.52;74.61;102124.50;5114000;28;20031;-36
2022/03/04 07:48:03;;;;;;;20.23;14.53;;;;;;;1.56;74.15;102128.56;5114395;28;20034;-36
2022/03/04 07:50:28;;;;;;;21.15;15.38;;;;;;;1.53;73.97;102112.84;5114163;28;20333;-36
2022/03/04 07:52:54;;;;;;;17.75;14.10;;;;;;;1.64;74.40;102111.88;5114044;28;20049;-36
2022/03/04 07:55:20;;;;;;;21.07;15.33;;;;;;;1.59;73.98;102116.78;5114365;28;20031;-36
2022/03/04 07:57:45;;;;;;;19.40;15.35;;;;;;;1.69;74.07;102117.63;5113622;28;20030;-36
2022/03/04 08:00:14;;;;;;;18.75;14.25;;;;;;;1.80;73.76;102134.28;5114502;28;20027;-36
2022/03/04 08:02:40;;;;;;;20.48;14.15;;;;;;;1.93;73.47;102134.00;5113606;28;20055;-36
2022/03/04 08:05:09;;;;;;;18.75;14.55;;;;;;;2.06;73.62;102133.72;5114735;28;20081;-36
2022/03/04 08:07:36;;;;;;;19.33;14.18;;;;;;;1.98;73.64;102099.72;5113837;28;20062;-36
2022/03/04 08:10:04;;;;;;;20.15;13.85;;;;;;;2.25;73.80;102139.00;5114186;28;20430;-36
2022/03/04 08:12:30;;;;;;;20.52;14.23;;;;;;;2.24;71.81;102125.78;5113521;28;20387;-36
2022/03/04 08:14:55;;;;;;;18.60;14.67;;;;;;;2.35;72.60;102132.78;5113972;28;20101;-36
2022/03/04 08:17:20;;;;;;;19.10;13.77;;;;;;;2.39;71.90;102124.34;5112312;28;20442;-36
2022/03/04 08:19:46;;;;;;;19.53;14.17;;;;;;;2.50;70.59;102136.66;5113980;28;20054;-36
2022/03/04 08:22:11;;;;;;;17.90;14.37;;;;;;;2.44;70.86;102135.44;5113392;28;20395;-36
2022/03/04 08:24:36;;;;;;;22.93;13.13;;;;;;;2.49;70.94;102134.97;5113378;28;20047;-36
2022/03/04 08:27:02;;;;;;;21.77;15.03;;;;;;;2.48;70.25;102138.63;5113298;28;20059;-36
2022/03/04 08:29:27;;;;;;;18.30;13.83;;;;;;;2.62;70.12;102145.31;5113892;28;20051;-36
2022/03/04 08:31:52;;;;;;;17.70;13.00;;;;;;;2.68;69.98;102150.91;5113934;28;20031;-36
2022/03/04 08:34:18;;;;;;;17.80;13.27;;;;;;;2.60;69.98;102116.09;5113838;28;20075;-36
2022/03/04 08:36:43;;;;;;;20.40;13.50;;;;;;;2.87;70.38;102149.13;5113971;28;20023;-37
2022/03/04 08:39:08;;;;;;;17.27;13.50;;;;;;;3.02;69.34;102153.00;5113356;28;20020;-37
2022/03/04 08:41:34;;;;;;;18.60;14.27;;;;;;;2.96;68.71;102158.94;5113763;28;20016;-36
2022/03/04 08:44:00;;;;;;;18.55;13.23;;;;;;;2.84;68.82;102127.09;5113769;28;20048;-37
2022/03/04 08:46:26;;;;;;;;;;;;;;;3.16;69.10;102157.00;5114329;28;20043;-37
2022/03/04 08:48:52;;;;;;;19.27;13.02;;;;;;;3.21;68.05;102166.25;5113016;28;19912;-36
2022/03/04 08:51:17;;;;;;;17.67;13.77;;;;;;;3.16;68.30;102141.78;5113627;28;20059;-36
2022/03/04 08:53:42;;;;;;;17.53;12.70;;;;;;;3.40;68.42;102161.75;5113273;28;20088;-36
2022/03/04 08:56:08;;;;;;;18.73;14.50;;;;;;;3.51;68.06;102156.19;5113468;28;20759;-36
2022/03/04 08:58:34;;;;;;;19.73;14.27;;;;;;;3.55;67.60;102163.75;5113200;28;20034;-36
2022/03/04 09:00:59;;;;;;;18.25;13.07;;;;;;;3.59;67.45;102145.56;5113436;28;20051;-35
2022/03/04 09:03:24;;;;;;;18.30;13.45;;;;;;;3.73;66.45;102160.25;5113935;28;20504;-35
2022/03/04 09:05:50;;;;;;;19.10;14.10;;;;;;;3.85;66.06;102161.66;5113420;28;20031;-36
2022/03/04 09:08:16;;;;;;;16.63;13.30;;;;;;;3.85;65.76;102164.34;5112916;28;20088;-35
2022/03/04 09:10:41;;;;;;;17.08;13.02;;;;;;;3.82;66.22;102135.25;5115090;28;20024;-35
2022/03/04 09:13:07;;;;;;;18.15;12.93;;;;;;;3.99;64.92;102154.94;5117024;28;20031;-36
2022/03/04 09:15:33;;;;;;;15.63;11.80;;;;;;;4.17;65.60;102160.25;5116952;28;20063;-36
2022/03/04 09:17:58;;;;;;;16.25;12.75;;;;;;;4.18;65.70;102152.06;5117202;27;20059;-36
2022/03/04 09:20:24;;;;;;;17.10;12.82;;;;;;;4.29;63.73;102149.09;5116022;28;20054;-36
2022/03/04 09:22:50;;;;;;;15.63;12.10;;;;;;;4.28;63.43;102152.78;5117514;28;20057;-36
2022/03/04 09:25:15;;;;;;;16.70;13.07;;;;;;;4.34;63.04;102146.81;5117686;28;20469;-36
2022/03/04 09:27:42;;;;;;;16.77;12.60;;;;;;;4.48;62.91;102150.72;5116830;28;20030;-36
2022/03/04 09:30:07;;;;;;;;;;;;;;;4.52;61.61;102148.59;5117852;28;20058;-36
2022/03/04 09:32:33;;;;;;;18.60;14.48;;;;;;;4.36;62.63;102107.31;5116464;28;20341;-36
2022/03/04 09:34:58;;;;;;;16.98;13.45;;;;;;;4.76;62.13;102146.00;5116812;28;20090;-36
2022/03/04 09:37:24;;;;;;;20.70;13.07;;;;;;;4.83;62.30;102132.81;5116277;28;20046;-36
2022/03/04 09:39:49;;;;;;;17.17;12.03;;;;;;;5.01;61.54;102136.22;5116392;28;20460;-36
2022/03/04 09:42:16;;;;;;;15.33;12.30;;;;;;;5.17;62.11;102132.75;5116742;28;20483;-36
2022/03/04 09:44:41;;;;;;;16.73;12.20;;;;;;;5.31;61.76;102140.16;5117289;27;20106;-36
2022/03/04 09:47:09;;;;;;;16.30;12.43;;;;;;;5.40;59.85;102122.22;5116367;28;20063;-36
2022/03/04 09:49:36;;;;;;;16.27;11.63;;;;;;;5.52;60.01;102117.41;5116429;28;20310;-36
2022/03/04 09:52:06;;;;;;;18.83;13.50;;;;;;;5.77;61.11;102135.19;5116581;28;20081;-36
2022/03/04 09:54:32;;;;;;;18.42;13.18;;;;;;;5.89;59.47;102130.28;5116550;28;20364;-36
2022/03/04 09:56:58;;;;;;;16.60;12.98;;;;;;;5.92;59.06;102132.69;5116176;28;20033;-36
2022/03/04 09:59:24;;;;;;;16.98;12.20;;;;;;;6.07;59.67;102131.00;5116061;28;20114;-36
2022/03/04 10:01:50;;;;;;;14.50;11.48;;;;;;;6.03;58.75;102116.22;5116150;28;20024;-36
2022/03/04 10:04:16;;;;;;;17.73;11.70;;;;;;;6.26;57.40;102137.84;5117220;28;20027;-36
2022/03/04 10:06:49;;;;;;;17.48;12.25;;;;;;;6.30;56.08;102139.19;5116864;27;20364;-36
2022/03/04 10:09:34;;;;;;;16.80;11.88;;;;;;;6.38;56.73;102133.78;5115955;28;20031;-36
2022/03/04 10:12:05;;;;;;;15.13;12.23;;;;;;;6.50;56.36;102139.63;5115947;28;20035;-36
2022/03/04 10:14:30;;;;;;;16.48;12.65;;;;;;;6.62;56.57;102142.78;5115597;28;20103;-36
2022/03/04 10:16:57;;;;;;;15.83;11.00;;;;;;;6.63;56.92;102131.00;5116570;28;20114;-36
2022/03/04 10:19:23;;;;;;;16.60;12.95;;;;;;;6.72;54.32;102140.72;5115991;28;20028;-36
2022/03/04 10:22:03;;;;;;;15.55;12.07;;;;;;;6.85;55.89;102146.38;5115318;28;20035;-36
2022/03/04 10:24:30;;;;;;;15.93;12.27;;;;;;;7.01;56.14;102139.25;5116184;28;20034;-36
2022/03/04 10:27:04;;;;;;;17.13;12.23;;;;;;;6.96;54.69;102135.25;5115565;28;20571;-36
2022/03/04 10:29:32;;;;;;;15.13;12.07;;;;;;;7.08;53.77;102133.00;5115852;28;20023;-36
2022/03/04 10:32:22;;;;;;;17.27;12.65;;;;;;;7.12;55.24;102137.00;5116044;28;20024;-36
2022/03/04 10:34:48;;;;;;;16.52;11.70;;;;;;;7.27;54.97;102134.41;5115887;28;20373;-35
2022/03/04 10:37:14;;;;;;;17.70;11.30;;;;;;;7.44;55.75;102125.22;5115221;28;20062;-36
2022/03/04 10:40:01;;;;;;;15.15;12.40;;;;;;;7.58;54.60;102125.47;5115363;28;20420;-36
2022/03/04 10:42:44;;;;;;;16.50;12.40;;;;;;;7.55;53.28;102109.66;5116094;28;20047;-36
2022/03/04 10:45:27;;;;;;;16.98;11.95;;;;;;;7.74;53.85;102136.09;5115945;28;20414;-36
2022/03/04 10:47:56;;;;;;;20.08;12.52;;;;;;;7.67;53.25;102129.75;5115290;28;20028;-36
2022/03/04 10:50:33;;;;;;;14.52;11.85;;;;;;;7.74;54.21;102128.00;5115444;28;20113;-36
2022/03/04 10:53:00;;;;;;;;;;;;;;;7.94;55.29;102134.56;5115891;27;20063;-36
2022/03/04 10:55:39;;;;;;;15.20;11.50;;;;;;;8.08;55.20;102129.41;5115333;28;20008;-36
2022/03/04 10:58:07;;;;;;;15.80;13.05;;;;;;;7.92;51.01;102119.63;5115352;28;20023;-36
2022/03/04 11:00:36;;;;;;;15.63;12.02;;;;;;;8.03;52.78;102121.03;5115827;28;20360;-36
2022/03/04 11:03:03;;;;;;;13.55;11.02;;;;;;;8.00;53.66;102117.69;5114834;28;20138;-36
2022/03/04 11:05:29;;;;;;;14.65;11.40;;;;;;;8.11;52.58;102115.56;5115215;28;20024;-36
2022/03/04 11:07:55;;;;;;;14.23;12.07;;;;;;;8.25;51.81;102122.84;5115072;28;20031;-36
2022/03/04 11:10:21;;;;;;;13.88;10.98;;;;;;;8.37;54.29;102124.06;5114553;28;20032;-36
2022/03/04 11:12:53;;;;;;;14.98;11.73;;;;;;;8.45;52.30;102118.59;5114779;28;20027;-36
2022/03/04 11:15:20;;;;;;;16.88;13.00;;;;;;;8.56;51.92;102109.19;5115244;28;20053;-36
2022/03/04 11:17:47;;;;;;;13.98;12.07;;;;;;;8.49;49.23;102092.94;5114874;28;20027;-36